Time;durP1;ratioP1;P1;durP2;ratioP2;P2;SDS_P1;SDS_P2;PMS_P1;PMS_P2;Temp;Humidity;BMP_temperature;BMP_pressure;BME280_temperature;BME280_humidity;BME280_pressure;Samples;Min_cycle;Max_cycle;Signal;HPM_P1;HPM_P2
2022/05/08 00:00:48;;;;;;;17.83;16.03;;;;;;;7.68;100.00;97571.13;5042300;28;20227;-57
2022/05/08 00:03:16;;;;;;;17.50;15.93;;;;;;;7.70;100.00;97559.59;4991065;28;20404;-58
2022/05/08 00:05:44;;;;;;;20.97;17.27;;;;;;;7.71;100.00;97561.25;5040143;28;20679;-60
2022/05/08 00:08:12;;;;;;;18.60;16.90;;;;;;;7.71;100.00;97563.91;5024929;28;20207;-60
2022/05/08 00:10:40;;;;;;;17.53;15.83;;;;;;;7.69;100.00;97566.69;5040118;28;20199;-61
2022/05/08 00:13:09;;;;;;;19.53;17.63;;;;;;;7.75;100.00;97562.59;5024560;28;20214;-59
2022/05/08 00:15:39;;;;;;;20.40;18.20;;;;;;;7.74;100.00;97561.75;5024099;28;20782;-59
2022/05/08 00:18:07;;;;;;;19.07;17.23;;;;;;;7.75;100.00;97567.88;5041839;28;20572;-60
2022/05/08 00:20:35;;;;;;;18.57;16.77;;;;;;;7.77;100.00;97560.63;4997675;28;20215;-53
2022/05/08 00:23:03;;;;;;;19.17;17.17;;;;;;;7.76;100.00;97564.25;5043635;28;20231;-57
2022/05/08 00:25:32;;;;;;;18.23;16.60;;;;;;;7.74;100.00;97564.38;5020109;28;20414;-57
2022/05/08 00:28:00;;;;;;;18.90;17.17;;;;;;;7.68;100.00;97557.94;5030522;28;20577;-59
2022/05/08 00:30:28;;;;;;;18.60;16.67;;;;;;;7.64;100.00;97559.25;5021813;28;20207;-59
2022/05/08 00:32:57;;;;;;;19.33;17.50;;;;;;;7.62;100.00;97555.09;5044179;28;20663;-58
2022/05/08 00:35:26;;;;;;;18.10;16.30;;;;;;;7.60;100.00;97554.44;4996123;28;20511;-58
2022/05/08 00:37:54;;;;;;;19.50;17.70;;;;;;;7.57;100.00;97542.38;5043274;28;20203;-58
2022/05/08 00:40:22;;;;;;;17.87;16.27;;;;;;;7.57;100.00;97550.28;5026704;28;20217;-59
2022/05/08 00:42:53;;;;;;;17.37;15.63;;;;;;;7.53;100.00;97552.41;5026752;28;20556;-57
2022/05/08 00:45:21;;;;;;;18.90;16.97;;;;;;;7.46;100.00;97547.91;5025462;28;20588;-57
2022/05/08 00:47:50;;;;;;;18.93;17.13;;;;;;;7.44;100.00;97558.63;5040410;28;20289;-59
2022/05/08 00:50:19;;;;;;;18.50;16.40;;;;;;;7.41;100.00;97556.31;5000990;28;20210;-58
2022/05/08 00:52:47;;;;;;;18.10;16.40;;;;;;;7.36;100.00;97554.13;5038058;28;20423;-61
2022/05/08 00:55:15;;;;;;;18.67;16.70;;;;;;;7.38;100.00;97559.22;5026614;28;20203;-58
2022/05/08 00:57:43;;;;;;;17.17;15.47;;;;;;;7.38;100.00;97562.69;5026684;28;20435;-57
2022/05/08 01:00:13;;;;;;;18.10;16.30;;;;;;;7.50;100.00;97550.09;5039652;28;20210;-58
2022/05/08 01:02:41;;;;;;;18.23;16.63;;;;;;;7.45;100.00;97551.53;5023321;28;20593;-58
2022/05/08 01:05:11;;;;;;;17.93;16.13;;;;;;;7.37;100.00;97557.56;5001884;28;20238;-56
2022/05/08 01:07:40;;;;;;;18.07;16.37;;;;;;;7.34;100.00;97542.91;5036670;28;20317;-56
2022/05/08 01:10:09;;;;;;;19.07;17.37;;;;;;;7.37;100.00;97549.66;5028038;28;20576;-56
2022/05/08 01:12:44;;;;;;;18.63;17.03;;;;;;;7.36;100.00;97546.22;5026532;28;20222;-57
2022/05/08 01:15:14;;;;;;;18.47;16.67;;;;;;;7.38;100.00;97549.53;5042473;28;20202;-58
2022/05/08 01:17:43;;;;;;;18.90;17.07;;;;;;;7.39;100.00;97556.44;5026113;28;20454;-61
2022/05/08 01:20:12;;;;;;;19.20;17.40;;;;;;;7.41;100.00;97543.13;4975363;28;20305;-55
2022/05/08 01:22:41;;;;;;;19.97;18.10;;;;;;;7.41;100.00;97545.75;5039018;28;20229;-57
2022/05/08 01:25:10;;;;;;;20.83;18.83;;;;;;;7.43;100.00;97538.53;5024848;28;20948;-58
2022/05/08 01:27:38;;;;;;;20.13;18.23;;;;;;;7.45;100.00;97541.00;5024709;28;20552;-57
2022/05/08 01:30:07;;;;;;;20.47;18.37;;;;;;;7.44;100.00;97534.91;5033542;28;20221;-61
2022/05/08 01:32:35;;;;;;;20.70;18.60;;;;;;;7.44;100.00;97540.19;5030591;28;20234;-59
2022/05/08 01:35:03;;;;;;;19.27;17.53;;;;;;;7.44;100.00;97541.97;5000225;28;21567;-59
2022/05/08 01:37:31;;;;;;;20.23;18.30;;;;;;;7.46;100.00;97547.91;5039819;28;21143;-59
2022/05/08 01:40:01;;;;;;;18.53;16.93;;;;;;;7.40;100.00;97549.38;5025472;28;20401;-61
2022/05/08 01:42:30;;;;;;;18.73;16.83;;;;;;;7.36;100.00;97555.91;5039646;28;20749;-60
2022/05/08 01:44:58;;;;;;;17.37;15.77;;;;;;;7.27;100.00;97556.84;5022318;28;20626;-58
2022/05/08 01:50:13;;;;;;;15.90;14.53;;;;;;;7.21;100.00;97553.03;4998788;28;20797;-59
2022/05/08 01:52:41;;;;;;;16.57;14.87;;;;;;;7.17;100.00;97555.13;5040954;28;20568;-57
2022/05/08 01:55:10;;;;;;;18.03;16.43;;;;;;;7.13;100.00;97553.78;5024012;28;20825;-59
2022/05/08 01:57:38;;;;;;;18.30;16.67;;;;;;;7.12;100.00;97554.78;5011991;28;22533;-60
2022/05/08 02:00:07;;;;;;;18.03;16.33;;;;;;;7.12;100.00;97552.13;5029384;28;20203;-60
2022/05/08 02:02:35;;;;;;;17.50;15.90;;;;;;;7.13;100.00;97552.94;5019498;28;20913;-57
2022/05/08 02:05:04;;;;;;;18.27;16.60;;;;;;;7.13;100.00;97559.06;5039685;28;20393;-58
2022/05/08 02:07:32;;;;;;;18.90;17.10;;;;;;;7.11;100.00;97555.75;4999286;28;20415;-54
2022/05/08 02:10:01;;;;;;;18.90;17.20;;;;;;;7.10;100.00;97560.19;5043927;28;20208;-53
2022/05/08 02:12:31;;;;;;;18.13;16.43;;;;;;;7.08;100.00;97556.88;5022483;28;20786;-56
2022/05/08 02:14:59;;;;;;;19.27;17.53;;;;;;;7.08;100.00;97558.69;5029577;28;20211;-60
2022/05/08 02:17:28;;;;;;;18.90;16.93;;;;;;;7.09;100.00;97557.72;5037584;28;20199;-58
2022/05/08 02:19:56;;;;;;;21.13;17.40;;;;;;;7.07;100.00;97554.41;5027812;28;20238;-57
2022/05/08 02:22:24;;;;;;;19.47;17.50;;;;;;;7.06;100.00;97558.84;4998590;28;20237;-58
2022/05/08 02:24:52;;;;;;;19.10;17.30;;;;;;;7.03;100.00;97559.16;5039366;28;20293;-55
2022/05/08 02:27:20;;;;;;;19.33;17.53;;;;;;;7.02;100.00;97554.84;5024134;28;20559;-58
2022/05/08 02:29:50;;;;;;;19.07;17.40;;;;;;;7.00;100.00;97555.97;5028854;28;20200;-62
2022/05/08 02:32:19;;;;;;;19.83;17.73;;;;;;;6.95;100.00;97553.81;5038188;28;20250;-57
2022/05/08 02:34:47;;;;;;;19.60;17.70;;;;;;;6.95;100.00;97554.63;5026633;28;20222;-58
2022/05/08 02:37:15;;;;;;;18.90;17.00;;;;;;;6.93;100.00;97553.94;5008760;28;20207;-59
2022/05/08 02:39:43;;;;;;;20.13;18.17;;;;;;;6.88;100.00;97553.59;5046249;28;20230;-62
2022/05/08 02:42:12;;;;;;;19.57;16.53;;;;;;;6.85;100.00;97553.88;5025264;28;20230;-58
2022/05/08 02:44:40;;;;;;;19.77;17.80;;;;;;;6.80;100.00;97553.50;5030919;28;20640;-61
2022/05/08 02:47:09;;;;;;;19.03;17.10;;;;;;;6.77;100.00;97551.19;5042669;28;20664;-58
2022/05/08 02:49:37;;;;;;;18.90;17.13;;;;;;;6.72;100.00;97554.25;5047219;28;20225;-57
2022/05/08 02:52:07;;;;;;;18.10;16.40;;;;;;;6.70;100.00;97555.41;5027041;28;20607;-56
2022/05/08 02:54:35;;;;;;;18.47;16.67;;;;;;;6.67;100.00;97559.16;5007522;28;20766;-57
2022/05/08 03:00:14;;;;;;;17.70;16.00;;;;;;;6.61;100.00;97559.75;5032599;28;20445;-59
2022/05/08 03:02:44;;;;;;;18.10;16.30;;;;;;;6.59;100.00;97567.78;5037442;28;20470;-57
2022/05/08 03:05:15;;;;;;;17.90;16.17;;;;;;;6.52;100.00;97553.56;5041884;28;20229;-59
2022/05/08 03:07:43;;;;;;;17.23;15.53;;;;;;;6.46;100.00;97549.75;5032658;28;20433;-60
2022/05/08 03:10:12;;;;;;;18.27;16.50;;;;;;;6.46;100.00;97554.16;4996459;28;20246;-58
2022/05/08 03:12:40;;;;;;;17.53;16.03;;;;;;;6.44;100.00;97564.88;5044482;28;20390;-56
2022/05/08 03:15:10;;;;;;;17.37;15.77;;;;;;;6.43;100.00;97562.38;5024861;28;20272;-59
2022/05/08 03:17:39;;;;;;;16.67;15.17;;;;;;;6.39;100.00;97563.63;5027877;28;20565;-59
2022/05/08 03:20:10;;;;;;;15.63;13.83;;;;;;;6.35;100.00;97566.56;5040543;28;20298;-59
2022/05/08 03:22:39;;;;;;;16.57;15.03;;;;;;;6.39;100.00;97571.53;5026281;28;20442;-59
2022/05/08 03:25:08;;;;;;;15.50;14.17;;;;;;;6.36;100.00;97567.38;4997506;28;20627;-60
2022/05/08 03:27:36;;;;;;;15.63;14.27;;;;;;;6.34;100.00;97567.53;5041983;28;20898;-60
2022/05/08 03:30:07;;;;;;;16.10;14.53;;;;;;;6.36;100.00;97568.22;5047900;28;20205;-58
2022/05/08 03:32:35;;;;;;;16.57;15.10;;;;;;;6.38;100.00;97568.06;5020550;28;20465;-58
2022/05/08 03:35:04;;;;;;;17.13;15.37;;;;;;;6.32;100.00;97564.25;5044459;28;20438;-58
2022/05/08 03:37:34;;;;;;;16.53;15.13;;;;;;;6.34;100.00;97574.59;5023383;28;20578;-63
2022/05/08 03:40:02;;;;;;;15.37;14.07;;;;;;;6.33;100.00;97579.06;4999812;28;20298;-56
2022/05/08 03:42:31;;;;;;;16.47;14.87;;;;;;;6.32;100.00;97576.56;5042813;28;20227;-55
2022/05/08 03:44:59;;;;;;;16.80;15.23;;;;;;;6.34;100.00;97577.22;5045311;28;20812;-58
2022/05/08 03:47:27;;;;;;;16.07;14.60;;;;;;;6.36;100.00;97575.28;5024570;28;20497;-58
2022/05/08 03:49:56;;;;;;;16.33;14.93;;;;;;;6.34;100.00;97583.34;5047067;28;20284;-56
2022/05/08 03:52:24;;;;;;;15.77;14.33;;;;;;;6.39;100.00;97577.63;5023067;28;20384;-58
2022/05/08 03:54:54;;;;;;;16.03;14.53;;;;;;;6.40;100.00;97584.53;5040206;28;20211;-58
2022/05/08 03:57:22;;;;;;;16.07;14.70;;;;;;;6.37;100.00;97584.84;4995710;28;21134;-58
2022/05/08 03:59:50;;;;;;;19.57;13.83;;;;;;;6.30;100.00;97576.72;5044955;28;20208;-59
2022/05/08 04:02:18;;;;;;;16.23;14.83;;;;;;;6.29;100.00;97587.38;5022098;28;20321;-58
2022/05/08 04:04:46;;;;;;;16.53;15.10;;;;;;;6.25;100.00;97589.50;5046433;28;20595;-56
2022/05/08 04:07:15;;;;;;;16.17;14.80;;;;;;;6.28;100.00;97590.97;5039794;28;20508;-58
2022/05/08 04:09:43;;;;;;;18.87;15.20;;;;;;;6.27;100.00;97591.97;5023382;28;20959;-59
2022/05/08 04:12:12;;;;;;;16.47;15.07;;;;;;;6.30;100.00;97592.50;4992379;28;20234;-57
2022/05/08 04:14:40;;;;;;;17.30;14.50;;;;;;;6.35;100.00;97586.78;5043096;28;20882;-54
2022/05/08 04:17:17;;;;;;;18.13;16.63;;;;;;;6.28;100.00;97590.97;5045463;28;20303;-58
2022/05/08 04:19:54;;;;;;;22.38;20.50;;;;;;;6.34;100.00;97585.97;5034098;28;20950;-55
2022/05/08 04:25:20;;;;;;;17.87;16.27;;;;;;;6.42;100.00;97589.66;5019942;28;20221;-56
2022/05/08 04:27:56;;;;;;;18.37;16.57;;;;;;;6.46;100.00;97593.66;5002181;28;20796;-59
2022/05/08 04:30:59;;;;;;;18.27;16.67;;;;;;;6.53;100.00;97597.34;5014948;28;20682;-59
2022/05/08 04:33:49;;;;;;;16.83;15.40;;;;;;;6.58;100.00;97589.81;5024525;28;20962;-58
2022/05/08 04:36:23;;;;;;;17.63;16.03;;;;;;;6.70;100.00;97592.28;5030761;28;20227;-60
2022/05/08 04:38:59;;;;;;;17.93;16.33;;;;;;;6.78;100.00;97594.97;5041312;28;20211;-57
2022/05/08 04:41:32;;;;;;;18.27;16.50;;;;;;;6.90;100.00;97603.50;5021453;28;20230;-56
2022/05/08 04:44:08;;;;;;;17.60;16.00;;;;;;;6.99;100.00;97604.38;4992578;28;20303;-55
2022/05/08 04:46:50;;;;;;;17.43;15.83;;;;;;;7.09;100.00;97602.50;5032400;28;20738;-58
2022/05/08 04:49:34;;;;;;;17.50;15.73;;;;;;;7.24;100.00;97605.44;5010406;28;20211;-56
2022/05/08 04:55:45;;;;;;;16.63;15.10;;;;;;;7.37;100.00;97607.66;4994740;28;23069;-60
2022/05/08 04:58:13;;;;;;;17.43;15.87;;;;;;;7.39;100.00;97617.09;4967787;28;20712;-62
2022/05/08 05:00:43;;;;;;;17.93;16.23;;;;;;;7.48;100.00;97615.34;5031787;28;20227;-61
2022/05/08 05:03:12;;;;;;;16.07;14.53;;;;;;;7.50;100.00;97612.53;5037926;28;20208;-59
2022/05/08 05:05:40;;;;;;;18.33;16.63;;;;;;;7.63;100.00;97609.50;4995038;28;20231;-62
2022/05/08 05:08:08;;;;;;;17.57;16.00;;;;;;;7.67;100.00;97614.31;5017653;28;20599;-59
2022/05/08 05:10:37;;;;;;;16.80;15.17;;;;;;;7.74;100.00;97617.16;4970331;28;20749;-62
2022/05/08 05:13:05;;;;;;;16.90;15.40;;;;;;;7.88;100.00;97617.56;4955617;28;21397;-60
2022/05/08 05:15:34;;;;;;;16.23;14.93;;;;;;;7.88;100.00;97610.47;5013387;28;20266;-61
2022/05/08 05:18:03;;;;;;;17.70;16.20;;;;;;;8.00;100.00;97618.94;5037495;28;20757;-61
2022/05/08 05:20:32;;;;;;;15.17;13.97;;;;;;;8.03;100.00;97612.56;5023179;28;20238;-61
2022/05/08 05:23:04;;;;;;;16.20;14.80;;;;;;;8.06;100.00;97612.22;4988859;28;20941;-61
2022/05/08 05:25:32;;;;;;;16.43;14.90;;;;;;;8.08;100.00;97608.44;5041555;28;20677;-59
2022/05/08 05:28:01;;;;;;;15.70;14.37;;;;;;;8.08;100.00;97616.34;5000851;28;20284;-58
2022/05/08 05:30:35;;;;;;;14.40;13.13;;;;;;;8.21;100.00;97621.19;4971481;28;20929;-62
2022/05/08 05:33:05;;;;;;;15.40;14.10;;;;;;;8.35;100.00;97621.59;5047010;28;20214;-61
2022/05/08 05:35:33;;;;;;;17.08;15.38;;;;;;;8.38;100.00;97627.38;4988305;28;20548;-58
2022/05/08 05:38:01;;;;;;;14.40;13.27;;;;;;;8.42;100.00;97619.97;5026238;28;20239;-58
2022/05/08 05:40:29;;;;;;;13.87;12.67;;;;;;;8.65;100.00;97617.59;5036296;28;20384;-58
2022/05/08 05:42:59;;;;;;;14.43;13.20;;;;;;;8.71;100.00;97620.59;5016024;28;20221;-57
2022/05/08 05:45:27;;;;;;;14.70;13.30;;;;;;;8.94;100.00;97615.50;4990363;28;20924;-58
2022/05/08 05:47:54;;;;;;;14.30;13.07;;;;;;;9.00;100.00;97617.50;5017767;28;20210;-59
2022/05/08 05:50:25;;;;;;;14.57;13.37;;;;;;;9.01;100.00;97619.16;5020845;28;20214;-59
2022/05/08 05:52:54;;;;;;;13.53;12.43;;;;;;;9.18;100.00;97617.34;5023817;28;20462;-55
2022/05/08 05:55:22;;;;;;;12.67;11.67;;;;;;;9.29;100.00;97625.97;5019537;28;20309;-59
2022/05/08 05:57:50;;;;;;;13.80;12.70;;;;;;;9.38;100.00;97622.34;5017805;28;20207;-59
2022/05/08 06:00:20;;;;;;;13.97;12.77;;;;;;;9.45;100.00;97622.47;4989908;28;20335;-59
2022/05/08 06:02:49;;;;;;;13.63;12.43;;;;;;;9.59;100.00;97624.47;5018041;28;20303;-57
2022/05/08 06:05:20;;;;;;;14.13;12.83;;;;;;;9.51;100.00;97627.13;5021365;28;20432;-56
2022/05/08 06:07:49;;;;;;;13.77;12.53;;;;;;;9.50;100.00;97625.47;5020651;28;20317;-59
2022/05/08 06:10:17;;;;;;;14.17;12.97;;;;;;;9.63;100.00;97631.06;5000353;28;20885;-59
2022/05/08 06:12:45;;;;;;;12.63;11.53;;;;;;;9.60;100.00;97628.75;5022563;28;20234;-58
2022/05/08 06:15:13;;;;;;;13.87;12.77;;;;;;;9.70;100.00;97628.59;4961779;28;20206;-52
2022/05/08 06:17:43;;;;;;;14.20;12.73;;;;;;;9.55;100.00;97631.09;5024178;28;20200;-58
2022/05/08 06:20:12;;;;;;;14.33;12.80;;;;;;;9.69;100.00;97637.53;5025971;28;20244;-58
2022/05/08 06:22:40;;;;;;;13.87;12.67;;;;;;;9.95;100.00;97629.38;5019337;28;20615;-55
2022/05/08 06:25:10;;;;;;;13.53;12.30;;;;;;;9.98;100.00;97634.34;5033967;28;20234;-58
2022/05/08 06:27:38;;;;;;;13.53;12.43;;;;;;;10.22;100.00;97637.06;5024836;28;20245;-59
2022/05/08 06:30:08;;;;;;;12.77;11.77;;;;;;;10.45;100.00;97628.44;4985768;28;20215;-60
2022/05/08 06:32:37;;;;;;;12.03;11.13;;;;;;;10.54;100.00;97630.84;5026096;28;20230;-60
2022/05/08 06:35:25;;;;;;;13.17;12.07;;;;;;;10.56;100.00;97636.78;4998547;28;20452;-62
2022/05/08 06:37:54;;;;;;;12.47;11.47;;;;;;;10.46;100.00;97627.44;5043006;28;20272;-57
2022/05/08 06:40:25;;;;;;;13.87;12.47;;;;;;;10.57;100.00;97632.34;5018147;28;20284;-57
2022/05/08 06:42:53;;;;;;;12.93;11.73;;;;;;;10.73;100.00;97631.44;5004884;28;20219;-58
2022/05/08 06:45:24;;;;;;;14.50;13.20;;;;;;;10.92;100.00;97632.81;4993509;28;20381;-60
2022/05/08 06:47:52;;;;;;;12.80;11.70;;;;;;;11.04;100.00;97632.41;5005663;28;20226;-59
2022/05/08 06:50:21;;;;;;;12.03;11.13;;;;;;;11.28;100.00;97632.25;5020927;28;20902;-58
2022/05/08 06:52:49;;;;;;;13.03;12.03;;;;;;;11.73;100.00;97626.22;5028416;28;20226;-59
2022/05/08 06:55:19;;;;;;;13.80;12.53;;;;;;;12.42;100.00;97641.13;5028767;28;20298;-57
2022/05/08 06:57:48;;;;;;;13.17;11.97;;;;;;;13.38;100.00;97630.50;5037208;28;20226;-56
2022/05/08 07:03:04;;;;;;;11.60;10.70;;;;;;;13.73;100.00;97635.94;5035223;28;20199;-60
2022/05/08 07:05:36;;;;;;;11.80;10.87;;;;;;;13.59;100.00;97633.19;5022482;28;20200;-57
2022/05/08 07:08:05;;;;;;;11.50;10.70;;;;;;;13.41;100.00;97635.44;5018741;28;20245;-59
2022/05/08 07:10:33;;;;;;;12.00;11.20;;;;;;;13.25;100.00;97629.38;5039739;28;20203;-59
2022/05/08 07:13:02;;;;;;;12.07;11.17;;;;;;;13.32;100.00;97632.09;5028355;28;20686;-59
2022/05/08 07:15:31;;;;;;;12.87;11.60;;;;;;;13.31;100.00;97638.44;5026415;28;20937;-59
2022/05/08 07:18:19;;;;;;;12.10;11.10;;;;;;;13.54;100.00;97638.28;4995122;28;20212;-59
2022/05/08 07:20:47;;;;;;;12.70;11.57;;;;;;;13.63;100.00;97638.94;5047322;28;20817;-61
2022/05/08 07:23:15;;;;;;;11.43;10.63;;;;;;;13.69;100.00;97640.00;5011438;28;20728;-59
2022/05/08 07:25:43;;;;;;;11.03;10.23;;;;;;;13.93;100.00;97641.41;5014118;28;20214;-59
2022/05/08 07:28:13;;;;;;;12.17;11.17;;;;;;;13.87;100.00;97647.53;5029644;28;20222;-57
2022/05/08 07:30:41;;;;;;;12.40;11.50;;;;;;;14.27;100.00;97647.78;5019113;28;20632;-58
2022/05/08 07:33:09;;;;;;;11.30;10.43;;;;;;;14.33;100.00;97648.84;5006732;28;20203;-56
2022/05/08 07:38:27;;;;;;;12.83;11.67;;;;;;;14.46;100.00;97645.44;5028120;28;20272;-59
2022/05/08 07:41:00;;;;;;;11.57;10.77;;;;;;;14.71;100.00;97651.13;5026501;28;20256;-59
2022/05/08 07:43:30;;;;;;;11.63;10.73;;;;;;;15.27;100.00;97648.41;5034707;28;20215;-61
2022/05/08 07:45:59;;;;;;;11.57;10.67;;;;;;;15.53;100.00;97649.44;5045252;28;20222;-60
2022/05/08 07:48:27;;;;;;;11.63;10.63;;;;;;;15.70;100.00;97649.84;5008189;28;20249;-57
2022/05/08 07:50:57;;;;;;;11.53;10.73;;;;;;;15.93;100.00;97640.66;5021850;28;20318;-60
2022/05/08 07:53:26;;;;;;;10.90;10.00;;;;;;;16.32;100.00;97647.78;5025927;28;20348;-56
2022/05/08 07:55:54;;;;;;;10.53;9.63;;;;;;;16.65;100.00;97646.03;5026028;28;20203;-59
2022/05/08 07:58:22;;;;;;;11.43;10.53;;;;;;;16.71;100.00;97655.88;5043075;28;20287;-60
2022/05/08 08:00:53;;;;;;;9.47;8.77;;;;;;;16.58;100.00;97648.72;5028844;28;20263;-59
2022/05/08 08:03:22;;;;;;;9.40;8.70;;;;;;;16.58;100.00;97651.38;5007728;28;20230;-60
2022/05/08 08:05:50;;;;;;;9.87;9.17;;;;;;;16.69;100.00;97654.47;5026710;28;21003;-57
2022/05/08 08:08:36;;;;;;;8.87;8.27;;;;;;;16.89;100.00;97654.38;5043361;28;20264;-56
2022/05/08 08:11:05;;;;;;;9.20;8.43;;;;;;;16.86;100.00;97652.94;4981559;28;20228;-59
2022/05/08 08:13:34;;;;;;;8.03;7.43;;;;;;;17.04;100.00;97659.47;5045017;28;20207;-59
2022/05/08 08:16:05;;;;;;;8.80;8.10;;;;;;;17.17;100.00;97663.91;5029226;28;20211;-56
2022/05/08 08:18:33;;;;;;;9.17;8.47;;;;;;;17.37;100.00;97661.13;5005760;28;20907;-59
2022/05/08 08:21:07;;;;;;;8.40;7.70;;;;;;;17.40;100.00;97667.91;5025289;28;20349;-57
2022/05/08 08:23:36;;;;;;;9.20;8.53;;;;;;;17.30;100.00;97663.88;5024537;28;20866;-60
2022/05/08 08:26:04;;;;;;;8.53;7.83;;;;;;;17.13;100.00;97666.22;4996034;28;20769;-58
2022/05/08 08:28:32;;;;;;;8.83;8.23;;;;;;;17.14;100.00;97665.19;5044049;28;20308;-59
2022/05/08 08:31:00;;;;;;;8.23;7.60;;;;;;;17.19;100.00;97669.88;5031510;28;20275;-58
2022/05/08 08:33:31;;;;;;;8.77;8.17;;;;;;;17.04;100.00;97664.81;5014188;28;20202;-59
2022/05/08 08:35:59;;;;;;;8.60;7.87;;;;;;;17.36;100.00;97671.03;4976768;28;20211;-61
2022/05/08 08:38:28;;;;;;;8.57;7.77;;;;;;;17.42;100.00;97674.69;5039094;28;20219;-59
2022/05/08 08:40:58;;;;;;;8.00;7.43;;;;;;;17.52;100.00;97665.38;5004203;28;20233;-61
2022/05/08 08:43:27;;;;;;;7.30;6.77;;;;;;;17.53;100.00;97662.47;5031922;28;20235;-57
2022/05/08 08:48:50;;;;;;;8.67;7.90;;;;;;;17.81;100.00;97668.47;5042640;28;20256;-54
2022/05/08 08:51:18;;;;;;;7.20;6.70;;;;;;;18.04;100.00;97663.31;4984469;28;20289;-57
2022/05/08 08:53:47;;;;;;;7.40;6.83;;;;;;;18.32;100.00;97663.88;5020608;28;20321;-57
2022/05/08 08:56:17;;;;;;;9.27;7.17;;;;;;;18.49;100.00;97667.63;4989312;28;20305;-54
2022/05/08 08:58:46;;;;;;;7.23;6.73;;;;;;;18.37;100.00;97666.69;5011506;28;20273;-53
2022/05/08 09:01:15;;;;;;;7.90;7.30;;;;;;;18.53;100.00;97662.63;5019911;28;20460;-58
2022/05/08 09:03:43;;;;;;;8.23;7.53;;;;;;;18.62;100.00;97666.66;5043728;28;20282;-59
2022/05/08 09:06:13;;;;;;;7.53;7.03;;;;;;;18.64;100.00;97666.41;4982377;28;21022;-54
2022/05/08 09:08:41;;;;;;;7.23;6.73;;;;;;;18.81;100.00;97672.00;5044091;28;20903;-59
2022/05/08 09:11:12;;;;;;;7.07;6.47;;;;;;;18.73;100.00;97670.44;5007907;28;21041;-61
2022/05/08 09:13:49;;;;;;;6.87;6.37;;;;;;;18.43;100.00;97665.00;5026936;28;20207;-60
2022/05/08 09:16:18;;;;;;;6.17;5.67;;;;;;;18.45;100.00;97673.66;5038154;28;20709;-59
2022/05/08 09:18:48;;;;;;;6.17;5.70;;;;;;;18.42;100.00;97668.72;5028079;28;20218;-58
2022/05/08 09:24:11;;;;;;;5.97;5.57;;;;;;;18.27;100.00;97671.78;5031855;28;20214;-59
2022/05/08 09:26:40;;;;;;;6.70;6.20;;;;;;;18.60;100.00;97667.91;5019568;28;20525;-61
2022/05/08 09:29:08;;;;;;;5.60;5.20;;;;;;;18.73;100.00;97673.13;5022025;28;20219;-57
2022/05/08 09:31:41;;;;;;;6.47;6.03;;;;;;;18.76;100.00;97667.31;5040687;28;20778;-60
2022/05/08 09:34:15;;;;;;;7.93;4.93;;;;;;;19.01;100.00;97668.28;5037092;28;20686;-59
2022/05/08 09:36:45;;;;;;;4.70;4.40;;;;;;;19.18;100.00;97663.91;5038348;28;20268;-59
2022/05/08 09:39:19;;;;;;;5.77;5.17;;;;;;;19.11;100.00;97668.56;4987474;28;21102;-59
2022/05/08 09:41:48;;;;;;;6.30;5.57;;;;;;;19.18;100.00;97663.09;5022317;28;20832;-59
2022/05/08 09:44:18;;;;;;;5.20;4.80;;;;;;;19.21;100.00;97659.97;5017786;28;20310;-57
2022/05/08 09:46:48;;;;;;;5.43;5.03;;;;;;;19.40;100.00;97667.94;5024041;28;20264;-59
2022/05/08 09:49:19;;;;;;;5.10;4.80;;;;;;;19.31;100.00;97662.91;5029755;28;20246;-57
2022/05/08 09:51:49;;;;;;;6.17;5.77;;;;;;;19.11;100.00;97660.50;5036111;28;20233;-60
2022/05/08 09:54:18;;;;;;;7.03;6.43;;;;;;;19.41;100.00;97665.06;5004071;28;20269;-59
2022/05/08 09:56:49;;;;;;;6.70;6.20;;;;;;;19.52;100.00;97664.25;5017805;28;20210;-59
2022/05/08 09:59:19;;;;;;;7.07;6.07;;;;;;;19.67;99.22;97654.91;5019894;28;20832;-62
2022/05/08 10:01:48;;;;;;;4.80;4.40;;;;;;;19.67;93.68;97657.59;5027180;28;20604;-58
2022/05/08 10:04:16;;;;;;;5.33;5.00;;;;;;;19.58;89.77;97650.94;5025338;28;20204;-60
2022/05/08 10:06:44;;;;;;;6.03;5.53;;;;;;;19.60;94.25;97662.28;5018319;28;20231;-58
2022/05/08 10:14:53;;;;;;;4.30;4.07;;;;;;;19.92;83.21;97659.31;4996994;28;20673;-59
2022/05/08 10:17:29;;;;;;;5.03;4.70;;;;;;;19.84;95.85;97659.63;5019656;28;20289;-59
2022/05/08 10:19:57;;;;;;;4.73;4.40;;;;;;;20.03;88.22;97657.69;5018740;28;20206;-61
2022/05/08 10:22:27;;;;;;;5.07;4.60;;;;;;;20.21;86.54;97654.06;5021902;28;20226;-54
2022/05/08 10:25:13;;;;;;;5.00;4.60;;;;;;;20.29;84.81;97656.38;5042632;28;20276;-59
2022/05/08 10:28:04;;;;;;;4.90;4.50;;;;;;;20.65;80.39;97653.66;5022445;28;20230;-60
2022/05/08 10:30:34;;;;;;;5.27;4.87;;;;;;;20.76;79.96;97650.09;5041082;28;20242;-58
2022/05/08 10:33:02;;;;;;;4.30;3.90;;;;;;;20.79;76.73;97652.34;5024876;28;20239;-58
2022/05/08 10:35:31;;;;;;;4.73;4.43;;;;;;;21.07;71.98;97644.53;5010143;28;20288;-56
2022/05/08 10:38:24;;;;;;;4.97;4.67;;;;;;;21.01;72.95;97646.28;5020826;28;20203;-57
2022/05/08 10:40:55;;;;;;;4.53;4.17;;;;;;;21.08;71.58;97641.59;5004481;28;20302;-60
2022/05/08 10:43:30;;;;;;;4.90;4.50;;;;;;;21.06;68.20;97640.19;5042908;28;20291;-60
2022/05/08 10:46:24;;;;;;;4.83;4.43;;;;;;;20.87;70.32;97643.09;5010917;28;20206;-59
2022/05/08 10:48:54;;;;;;;4.30;4.10;;;;;;;21.03;70.52;97646.06;5038285;28;20230;-57
2022/05/08 10:51:23;;;;;;;4.97;4.57;;;;;;;20.86;67.31;97638.75;5029800;28;20233;-59
2022/05/08 10:53:52;;;;;;;4.63;4.40;;;;;;;20.51;70.04;97648.53;5029806;28;20235;-59
2022/05/08 10:56:23;;;;;;;4.70;4.40;;;;;;;20.21;72.95;97638.72;5045276;28;20203;-60
2022/05/08 10:58:53;;;;;;;4.43;4.13;;;;;;;20.01;71.45;97636.41;5007965;28;20204;-60
2022/05/08 11:01:23;;;;;;;4.43;4.03;;;;;;;19.55;75.39;97649.56;5026504;28;20283;-58
2022/05/08 11:03:51;;;;;;;4.50;4.10;;;;;;;19.36;77.03;97646.91;5010789;28;20222;-61
2022/05/08 11:06:22;;;;;;;4.70;4.40;;;;;;;19.16;77.97;97641.03;5042954;28;20302;-59
2022/05/08 11:08:50;;;;;;;4.07;3.83;;;;;;;18.97;78.23;97642.91;5022513;28;20227;-60
2022/05/08 11:11:20;;;;;;;6.00;5.40;;;;;;;18.77;81.49;97638.59;5041314;28;20236;-61
2022/05/08 11:13:51;;;;;;;4.70;4.40;;;;;;;18.75;81.60;97638.00;5007754;28;20219;-59
2022/05/08 11:16:36;;;;;;;4.43;4.13;;;;;;;18.87;81.75;97632.72;5023280;28;20264;-58
2022/05/08 11:19:06;;;;;;;6.97;6.37;;;;;;;18.75;86.71;97628.13;5016510;28;20303;-63
2022/05/08 11:21:35;;;;;;;4.87;4.47;;;;;;;19.03;88.92;97637.47;5036818;28;20281;-60
2022/05/08 11:24:04;;;;;;;4.40;4.10;;;;;;;19.31;85.25;97627.16;5023956;28;20210;-59
2022/05/08 11:26:34;;;;;;;5.20;4.33;;;;;;;19.67;74.15;97622.66;5028332;28;20242;-60
2022/05/08 11:29:05;;;;;;;3.70;3.50;;;;;;;20.41;72.34;97624.09;4997593;28;20595;-58
2022/05/08 11:36:03;;;;;;;4.43;4.03;;;;;;;20.91;71.81;97627.25;5022545;28;20248;-55
2022/05/08 11:37:07;;;;;;;4.30;3.70;;;;;;;21.38;54.79;97623.53;5009445;28;20211;-60
2022/05/08 11:39:35;;;;;;;5.03;4.10;;;;;;;21.97;56.82;97627.69;5044454;28;20282;-61
2022/05/08 11:42:04;;;;;;;5.20;4.83;;;;;;;22.26;57.66;97631.09;5024564;28;20361;-58
2022/05/08 11:44:34;;;;;;;6.57;3.90;;;;;;;21.74;57.46;97629.53;5010521;28;20211;-58
2022/05/08 11:47:12;;;;;;;3.67;3.33;;;;;;;21.61;59.08;97637.94;5011587;28;20214;-56
2022/05/08 11:49:44;;;;;;;3.30;3.10;;;;;;;21.20;55.60;97629.94;5014324;28;20310;-58
2022/05/08 11:52:20;;;;;;;3.77;3.47;;;;;;;20.90;57.31;97631.00;5020385;28;20239;-59
2022/05/08 11:55:00;;;;;;;3.43;3.23;;;;;;;20.87;55.20;97624.25;5031223;28;20238;-57
2022/05/08 11:57:29;;;;;;;3.63;3.43;;;;;;;20.84;55.63;97629.28;5040616;28;20198;-58
2022/05/08 12:00:05;;;;;;;3.40;3.20;;;;;;;20.98;54.47;97627.91;5039724;28;20881;-56
2022/05/08 12:02:41;;;;;;;3.60;3.10;;;;;;;21.26;57.08;97623.59;4991834;28;20785;-58
2022/05/08 12:05:17;;;;;;;3.37;3.17;;;;;;;21.55;54.03;97627.03;5032775;28;20599;-60